Time;durP1;ratioP1;P1;durP2;ratioP2;P2;SDS_P1;SDS_P2;PMS_P1;PMS_P2;Temp;Humidity;BMP_temperature;BMP_pressure;BME280_temperature;BME280_humidity;BME280_pressure;Samples;Min_cycle;Max_cycle;Signal;HPM_P1;HPM_P2
2021/09/18 00:00:07;;;;;;;2.50;2.40;;;20.60;99.90;;;;;;5058119;28;20584;-76
2021/09/18 00:02:36;;;;;;;2.63;2.42;;;20.50;99.90;;;;;;5060205;28;20230;-76
2021/09/18 00:05:03;;;;;;;2.80;2.60;;;20.50;99.90;;;;;;5060709;28;20233;-76
2021/09/18 00:07:31;;;;;;;2.63;2.42;;;20.50;99.90;;;;;;5056635;28;20593;-77
2021/09/18 00:09:58;;;;;;;3.00;2.70;;;20.40;99.90;;;;;;5059083;28;20218;-76
2021/09/18 00:12:25;;;;;;;2.40;2.20;;;20.30;99.90;;;;;;5057942;28;20743;-76
2021/09/18 00:14:52;;;;;;;2.50;2.30;;;20.30;99.90;;;;;;5060943;28;20272;-76
2021/09/18 00:17:19;;;;;;;2.38;2.20;;;20.30;99.90;;;;;;5056175;28;20574;-76
2021/09/18 00:19:48;;;;;;;2.20;2.10;;;20.30;99.90;;;;;;5056665;28;20331;-76
2021/09/18 00:22:15;;;;;;;2.00;1.90;;;20.30;99.90;;;;;;5060439;28;20751;-76
2021/09/18 00:24:42;;;;;;;1.92;1.83;;;20.30;99.90;;;;;;5063447;28;20237;-76
2021/09/18 00:27:09;;;;;;;2.50;2.30;;;20.30;99.90;;;;;;5058745;28;20229;-76
2021/09/18 00:29:36;;;;;;;2.55;2.35;;;20.30;99.90;;;;;;5061824;28;20233;-76
2021/09/18 00:32:04;;;;;;;2.17;2.08;;;20.30;99.90;;;;;;5054162;28;20222;-77
2021/09/18 00:34:31;;;;;;;2.75;2.55;;;20.20;99.90;;;;;;5058403;28;20229;-76
2021/09/18 00:37:00;;;;;;;2.42;2.22;;;20.20;99.90;;;;;;5058139;28;20288;-75
2021/09/18 00:39:27;;;;;;;3.42;2.50;;;20.20;99.90;;;;;;5058121;28;20238;-76
2021/09/18 00:41:54;;;;;;;2.42;2.00;;;20.20;99.90;;;;;;5059613;28;20280;-75
2021/09/18 00:44:21;;;;;;;2.47;2.28;;;20.20;99.90;;;;;;5061340;28;20569;-75
2021/09/18 00:46:51;;;;;;;2.13;2.00;;;20.20;99.90;;;;;;5063764;28;20234;-77
2021/09/18 00:49:18;;;;;;;2.33;2.13;;;20.20;99.90;;;;;;5061091;28;20246;-76
2021/09/18 00:51:45;;;;;;;1.92;1.83;;;20.20;99.90;;;;;;5056707;28;20230;-75
2021/09/18 00:54:15;;;;;;;1.90;1.80;;;20.10;99.90;;;;;;5059876;28;20237;-76
2021/09/18 00:56:43;;;;;;;2.60;2.40;;;20.00;99.90;;;;;;5056117;28;20677;-76
2021/09/18 00:59:10;;;;;;;2.45;2.25;;;19.80;99.90;;;;;;5058877;28;20241;-76
2021/09/18 01:01:37;;;;;;;2.00;1.90;;;19.60;99.90;;;;;;5056607;28;20234;-76
2021/09/18 01:04:05;;;;;;;2.58;2.15;;;19.60;99.90;;;;;;5056186;28;20226;-76
2021/09/18 01:06:32;;;;;;;2.10;1.90;;;19.70;99.90;;;;;;5051903;28;20230;-75
2021/09/18 01:09:00;;;;;;;2.80;2.30;;;19.80;99.90;;;;;;5055944;28;20229;-76
2021/09/18 01:11:29;;;;;;;1.85;1.73;;;19.80;99.90;;;;;;5056424;28;20230;-76
2021/09/18 01:13:56;;;;;;;2.00;1.70;;;19.70;99.90;;;;;;5054951;28;20316;-75
2021/09/18 01:16:25;;;;;;;2.65;2.10;;;19.70;99.90;;;;;;5057073;28;20225;-76
2021/09/18 01:18:52;;;;;;;2.17;2.00;;;19.70;99.90;;;;;;5055739;28;20287;-75
2021/09/18 01:21:20;;;;;;;1.83;1.73;;;19.80;99.90;;;;;;5055955;28;20226;-76
2021/09/18 01:23:48;;;;;;;1.88;1.77;;;19.80;99.90;;;;;;5055996;28;20770;-74
2021/09/18 01:26:16;;;;;;;2.10;1.90;;;19.80;99.90;;;;;;5058218;28;20692;-75
2021/09/18 01:28:43;;;;;;;1.70;1.60;;;19.80;99.90;;;;;;5053254;28;20291;-75
2021/09/18 01:31:11;;;;;;;1.40;1.30;;;19.80;99.90;;;;;;5054043;28;20232;-76
2021/09/18 01:33:38;;;;;;;1.70;1.60;;;19.80;99.90;;;;;;5057436;28;20222;-75
2021/09/18 01:36:05;;;;;;;2.10;1.60;;;19.80;99.90;;;;;;5059127;28;20218;-76
2021/09/18 01:38:32;;;;;;;1.50;1.40;;;19.80;99.90;;;;;;5059105;28;20237;-75
2021/09/18 01:41:01;;;;;;;1.70;1.60;;;19.90;99.90;;;;;;5070138;28;20252;-77
2021/09/18 01:43:29;;;;;;;1.90;1.73;;;19.90;99.90;;;;;;5062407;28;20248;-76
2021/09/18 01:45:56;;;;;;;1.70;1.60;;;19.90;99.90;;;;;;5061688;28;20230;-75
2021/09/18 01:48:23;;;;;;;1.63;1.52;;;19.90;99.90;;;;;;5059812;28;20241;-75
2021/09/18 01:50:54;;;;;;;1.80;1.70;;;19.80;99.90;;;;;;5059737;28;20646;-76
2021/09/18 01:53:23;;;;;;;2.35;1.95;;;19.70;99.90;;;;;;5066002;28;20626;-75
2021/09/18 01:55:51;;;;;;;1.60;1.50;;;19.70;99.90;;;;;;5059416;28;20214;-76
2021/09/18 01:58:20;;;;;;;1.90;1.70;;;19.70;99.90;;;;;;5064979;28;20653;-76
2021/09/18 02:00:51;;;;;;;1.42;1.33;;;19.70;99.90;;;;;;5053332;28;20230;-75
2021/09/18 02:03:18;;;;;;;1.70;1.60;;;19.70;99.90;;;;;;5059263;28;20235;-75
2021/09/18 02:05:45;;;;;;;1.73;1.63;;;19.70;99.90;;;;;;5057836;28;20673;-75
2021/09/18 02:08:12;;;;;;;1.70;1.60;;;19.70;99.90;;;;;;5055763;28;20226;-76
2021/09/18 02:10:40;;;;;;;1.63;1.52;;;19.60;99.90;;;;;;5056677;28;20241;-75
2021/09/18 02:13:09;;;;;;;1.92;1.83;;;19.60;99.90;;;;;;5058529;28;20360;-76
2021/09/18 02:15:38;;;;;;;1.80;1.70;;;19.60;99.90;;;;;;5028084;28;20253;-76
2021/09/18 02:18:05;;;;;;;2.92;2.10;;;19.60;99.90;;;;;;5047526;28;20280;-75
2021/09/18 02:20:33;;;;;;;2.28;1.65;;;19.60;99.90;;;;;;5060727;28;20233;-74
2021/09/18 02:23:00;;;;;;;1.40;1.30;;;19.60;99.90;;;;;;5062492;28;20741;-75
2021/09/18 02:25:29;;;;;;;1.85;1.75;;;19.60;99.90;;;;;;5062046;28;20218;-76
2021/09/18 02:27:57;;;;;;;1.70;1.60;;;19.60;99.90;;;;;;5059016;28;20229;-76
2021/09/18 02:30:27;;;;;;;2.05;1.92;;;19.60;99.90;;;;;;5062422;28;20227;-76
2021/09/18 02:32:56;;;;;;;1.95;1.85;;;19.60;99.90;;;;;;5062611;28;20226;-75
2021/09/18 02:35:26;;;;;;;2.92;1.80;;;19.60;99.90;;;;;;5071063;28;20225;-76
2021/09/18 02:37:54;;;;;;;1.77;1.65;;;19.60;99.90;;;;;;5062441;28;20226;-75
2021/09/18 02:40:22;;;;;;;1.73;1.63;;;19.60;99.90;;;;;;5063696;28;20218;-75
2021/09/18 02:42:51;;;;;;;1.83;1.67;;;19.50;99.90;;;;;;5061412;28;20234;-76
2021/09/18 02:45:19;;;;;;;1.70;1.60;;;19.50;99.90;;;;;;5060924;28;20223;-76
2021/09/18 02:47:46;;;;;;;2.15;2.00;;;19.40;99.90;;;;;;5069702;28;20230;-76
2021/09/18 02:50:17;;;;;;;1.60;1.50;;;19.40;99.90;;;;;;5058726;28;20283;-76
2021/09/18 02:52:44;;;;;;;1.75;1.50;;;19.40;99.90;;;;;;5060012;28;20222;-76
2021/09/18 02:55:13;;;;;;;2.03;1.67;;;19.30;99.90;;;;;;5058614;28;20777;-76
2021/09/18 02:57:40;;;;;;;1.55;1.45;;;19.30;99.90;;;;;;5060061;28;20743;-76
2021/09/18 03:00:10;;;;;;;1.70;1.60;;;19.30;99.90;;;;;;5058044;28;20284;-76
2021/09/18 03:02:38;;;;;;;1.60;1.50;;;19.30;99.90;;;;;;5062076;28;20230;-77
2021/09/18 03:05:07;;;;;;;1.80;1.70;;;19.30;99.90;;;;;;5056834;28;20234;-75
2021/09/18 03:07:35;;;;;;;2.05;1.52;;;19.20;99.90;;;;;;5061902;28;20313;-75
2021/09/18 03:10:03;;;;;;;1.65;1.55;;;19.30;99.90;;;;;;5059333;28;20269;-76
2021/09/18 03:12:30;;;;;;;1.70;1.60;;;19.30;99.90;;;;;;5057440;28;20230;-76
2021/09/18 03:14:57;;;;;;;1.60;1.50;;;19.20;99.90;;;;;;5061061;28;20738;-75
2021/09/18 03:17:24;;;;;;;1.60;1.50;;;19.30;99.90;;;;;;5057668;28;20234;-76
2021/09/18 03:19:53;;;;;;;1.80;1.70;;;19.30;99.90;;;;;;5060770;28;20230;-76
2021/09/18 03:22:20;;;;;;;1.67;1.40;;;19.30;99.90;;;;;;5059132;28;20226;-75
2021/09/18 03:24:49;;;;;;;1.65;1.50;;;19.30;99.90;;;;;;5060167;28;20222;-76
2021/09/18 03:27:16;;;;;;;1.95;1.65;;;19.20;99.90;;;;;;5072725;28;20230;-76
2021/09/18 03:29:43;;;;;;;2.85;1.70;;;19.20;99.90;;;;;;5062608;28;20241;-75
2021/09/18 03:32:11;;;;;;;2.28;1.60;;;19.20;99.90;;;;;;5059326;28;20242;-75
2021/09/18 03:34:38;;;;;;;1.50;1.40;;;19.20;99.90;;;;;;5058764;28;20226;-75
2021/09/18 03:37:05;;;;;;;1.50;1.40;;;19.20;99.90;;;;;;5055401;28;20219;-76
2021/09/18 03:39:32;;;;;;;1.60;1.50;;;19.20;99.90;;;;;;5056917;28;20233;-75
2021/09/18 03:42:01;;;;;;;1.67;1.58;;;19.30;99.90;;;;;;5055367;28;20325;-75
2021/09/18 03:44:28;;;;;;;2.22;1.70;;;19.30;99.90;;;;;;5060836;28;20357;-77
2021/09/18 03:46:55;;;;;;;1.40;1.30;;;19.20;99.90;;;;;;5056323;28;20651;-75
2021/09/18 03:49:22;;;;;;;1.35;1.25;;;19.30;99.90;;;;;;5058315;28;20770;-76
2021/09/18 03:51:49;;;;;;;1.60;1.50;;;19.20;99.90;;;;;;5055895;28;20230;-76
2021/09/18 03:54:16;;;;;;;1.20;1.20;;;19.20;99.90;;;;;;5054763;28;20235;-76
2021/09/18 03:56:43;;;;;;;1.55;1.45;;;19.20;99.90;;;;;;5059830;28;20221;-75
2021/09/18 03:59:12;;;;;;;1.90;1.30;;;19.20;99.90;;;;;;5056125;28;20234;-75
2021/09/18 04:01:40;;;;;;;1.50;1.40;;;19.30;99.90;;;;;;5060734;28;20242;-75
2021/09/18 04:04:07;;;;;;;1.50;1.40;;;19.30;99.90;;;;;;5057724;28;20324;-75
2021/09/18 04:06:34;;;;;;;1.58;1.48;;;19.20;99.90;;;;;;5060124;28;20218;-75
2021/09/18 04:09:01;;;;;;;1.42;1.33;;;19.10;99.90;;;;;;5055263;28;20239;-76
2021/09/18 04:11:28;;;;;;;1.50;1.40;;;19.10;99.90;;;;;;5059684;28;20225;-76
2021/09/18 04:13:55;;;;;;;1.40;1.30;;;19.10;99.90;;;;;;5054758;28;20219;-75
2021/09/18 04:16:24;;;;;;;1.52;1.42;;;19.10;99.90;;;;;;5058248;28;21930;-75
2021/09/18 04:18:51;;;;;;;1.85;1.75;;;19.10;99.90;;;;;;5062076;28;20222;-76
2021/09/18 04:21:19;;;;;;;1.50;1.40;;;19.10;99.90;;;;;;5071266;28;20219;-76
2021/09/18 04:23:46;;;;;;;1.52;1.42;;;19.10;99.90;;;;;;5060714;28;20703;-75
2021/09/18 04:26:13;;;;;;;1.60;1.50;;;19.20;99.90;;;;;;5061456;28;20704;-75
2021/09/18 04:28:40;;;;;;;1.63;1.52;;;19.20;99.90;;;;;;5058987;28;20241;-76
2021/09/18 04:31:07;;;;;;;1.30;1.20;;;19.20;99.90;;;;;;5059332;28;20704;-75
2021/09/18 04:33:36;;;;;;;1.50;1.40;;;19.10;99.90;;;;;;5062306;28;20230;-75
2021/09/18 04:36:03;;;;;;;1.60;1.50;;;19.10;99.90;;;;;;5058826;28;20238;-76
2021/09/18 04:38:31;;;;;;;1.70;1.60;;;19.10;99.90;;;;;;5060515;28;20592;-76
2021/09/18 04:40:58;;;;;;;1.63;1.52;;;19.10;99.90;;;;;;5058246;28;20256;-76
2021/09/18 04:43:25;;;;;;;1.42;1.33;;;19.10;99.90;;;;;;5062822;28;20256;-76
2021/09/18 04:45:52;;;;;;;1.17;1.10;;;19.00;99.90;;;;;;5056546;28;20285;-77
2021/09/18 04:48:19;;;;;;;1.40;1.30;;;19.10;99.90;;;;;;5058103;28;20309;-75
2021/09/18 04:50:48;;;;;;;3.00;1.50;;;19.10;99.90;;;;;;5059222;28;20302;-76
2021/09/18 04:53:15;;;;;;;1.50;1.40;;;19.10;99.90;;;;;;5055428;28;20230;-76
2021/09/18 04:55:42;;;;;;;1.30;1.20;;;19.10;99.90;;;;;;5057223;28;20226;-75
2021/09/18 04:58:09;;;;;;;1.70;1.50;;;19.10;99.90;;;;;;5054413;28;20272;-75
2021/09/18 05:00:37;;;;;;;1.40;1.30;;;19.10;99.90;;;;;;5057930;28;20233;-76
2021/09/18 05:03:04;;;;;;;1.33;1.23;;;19.10;99.90;;;;;;5057416;28;20405;-78
2021/09/18 05:05:31;;;;;;;1.38;1.27;;;19.00;99.90;;;;;;5058572;28;20735;-76
2021/09/18 05:08:00;;;;;;;1.20;1.20;;;19.00;99.90;;;;;;5059341;28;20279;-76
2021/09/18 05:10:27;;;;;;;1.13;1.13;;;19.00;99.90;;;;;;5058370;28;20226;-76
2021/09/18 05:12:54;;;;;;;1.10;1.10;;;19.00;99.90;;;;;;5059611;28;20226;-76
2021/09/18 05:15:21;;;;;;;1.10;1.10;;;19.10;99.90;;;;;;5070267;28;20276;-76
2021/09/18 05:17:48;;;;;;;1.40;1.30;;;19.10;99.90;;;;;;5060994;28;20277;-77
2021/09/18 05:20:15;;;;;;;1.00;1.00;;;19.10;99.90;;;;;;5057731;28;20231;-76
2021/09/18 05:22:42;;;;;;;1.30;1.20;;;19.10;99.90;;;;;;5055302;28;20242;-76
2021/09/18 05:25:11;;;;;;;1.13;1.08;;;19.10;99.90;;;;;;5055137;28;20237;-76
2021/09/18 05:27:39;;;;;;;1.50;1.40;;;19.10;99.90;;;;;;5058984;28;20235;-76
2021/09/18 05:30:07;;;;;;;1.23;1.15;;;19.10;99.90;;;;;;5051239;28;20295;-76
2021/09/18 05:32:35;;;;;;;1.17;1.17;;;19.00;99.90;;;;;;5059636;28;20309;-74
2021/09/18 05:35:02;;;;;;;1.60;1.50;;;19.00;99.90;;;;;;5057434;28;20775;-75
2021/09/18 05:37:29;;;;;;;1.02;1.00;;;19.00;99.90;;;;;;5056171;28;20223;-75
2021/09/18 05:39:56;;;;;;;1.60;1.50;;;19.00;99.90;;;;;;5057003;28;20286;-74
2021/09/18 05:42:24;;;;;;;1.35;1.25;;;18.90;99.90;;;;;;5058427;28;20782;-75
2021/09/18 05:44:51;;;;;;;1.33;1.17;;;18.80;99.90;;;;;;5060089;28;20226;-75
2021/09/18 05:47:18;;;;;;;1.35;1.30;;;18.80;99.90;;;;;;5057964;28;20226;-75
2021/09/18 05:49:46;;;;;;;1.25;1.20;;;18.80;99.90;;;;;;5062023;28;20241;-75
2021/09/18 05:52:13;;;;;;;1.10;1.10;;;18.80;99.90;;;;;;5050748;28;20222;-75
2021/09/18 05:54:40;;;;;;;1.25;1.23;;;18.80;99.90;;;;;;5056771;28;20245;-76
2021/09/18 05:57:07;;;;;;;1.13;1.13;;;18.80;99.90;;;;;;5049528;28;20214;-75
2021/09/18 05:59:35;;;;;;;1.55;1.10;;;18.90;99.90;;;;;;5058823;28;20731;-75
2021/09/18 06:02:02;;;;;;;1.40;1.30;;;18.90;99.90;;;;;;5050182;28;20628;-75
2021/09/18 06:04:29;;;;;;;1.50;1.40;;;19.00;99.90;;;;;;5052587;28;20291;-78
2021/09/18 06:06:56;;;;;;;1.70;1.20;;;19.00;99.90;;;;;;5052178;28;20226;-77
2021/09/18 06:09:23;;;;;;;1.60;1.50;;;19.00;99.90;;;;;;5060285;28;20218;-75
2021/09/18 06:11:51;;;;;;;1.48;1.38;;;19.00;99.90;;;;;;5049249;28;20225;-78
2021/09/18 06:14:18;;;;;;;3.28;1.40;;;18.80;99.90;;;;;;5060867;28;20317;-78
2021/09/18 06:16:46;;;;;;;1.45;1.35;;;18.60;99.90;;;;;;5055754;28;20238;-78
2021/09/18 06:19:18;;;;;;;1.45;1.35;;;18.50;99.90;;;;;;5061040;28;20283;-77
2021/09/18 06:21:45;;;;;;;1.20;1.08;;;18.40;99.90;;;;;;5057037;28;20229;-77
2021/09/18 06:24:13;;;;;;;0.95;0.93;;;18.40;99.90;;;;;;5050388;28;20239;-77
2021/09/18 06:26:40;;;;;;;1.23;1.15;;;18.30;99.90;;;;;;5029343;23;21164;-75
2021/09/18 06:29:08;;;;;;;1.20;1.10;;;18.30;99.90;;;;;;5061350;28;20640;-77
2021/09/18 06:31:35;;;;;;;1.67;1.10;;;18.40;99.90;;;;;;5076191;28;20225;-77
2021/09/18 06:34:04;;;;;;;1.00;1.00;;;18.50;99.90;;;;;;5080112;28;20699;-76
2021/09/18 06:36:31;;;;;;;0.85;0.85;;;18.70;99.90;;;;;;5077308;28;20287;-78
2021/09/18 06:38:58;;;;;;;1.27;1.17;;;18.90;99.90;;;;;;5066240;28;20704;-78
2021/09/18 06:41:25;;;;;;;1.30;1.20;;;19.00;99.90;;;;;;5067636;28;20272;-79
2021/09/18 06:43:52;;;;;;;1.55;1.30;;;19.00;99.90;;;;;;5067916;28;20249;-78
2021/09/18 06:46:19;;;;;;;1.48;1.38;;;19.00;99.90;;;;;;5067622;28;20226;-78
2021/09/18 06:48:46;;;;;;;1.30;1.20;;;19.00;99.90;;;;;;5067993;28;20635;-78
2021/09/18 06:51:15;;;;;;;1.00;1.00;;;19.00;99.90;;;;;;5067736;28;20272;-77
2021/09/18 06:53:42;;;;;;;1.75;1.10;;;19.10;99.90;;;;;;5067308;28;20246;-77
2021/09/18 06:56:09;;;;;;;1.30;1.20;;;19.00;99.90;;;;;;5064930;28;20647;-79
2021/09/18 06:58:37;;;;;;;2.13;1.20;;;19.20;99.90;;;;;;5055689;28;20653;-79
2021/09/18 07:01:04;;;;;;;1.30;1.20;;;19.20;99.90;;;;;;5069215;28;20227;-78
2021/09/18 07:03:31;;;;;;;1.00;1.00;;;19.30;99.90;;;;;;5069980;28;20241;-79
2021/09/18 07:05:58;;;;;;;1.10;1.00;;;19.40;99.90;;;;;;5071346;28;20257;-78
2021/09/18 07:08:26;;;;;;;1.20;1.13;;;19.50;99.90;;;;;;5069661;28;20619;-79
2021/09/18 07:10:53;;;;;;;2.15;0.90;;;19.60;99.90;;;;;;5070677;28;20284;-78
2021/09/18 07:13:20;;;;;;;1.13;1.02;;;19.70;99.90;;;;;;5069881;28;20292;-78
2021/09/18 07:15:47;;;;;;;1.23;1.13;;;19.80;99.90;;;;;;5071262;28;20656;-78
2021/09/18 07:18:14;;;;;;;2.45;1.35;;;19.90;99.90;;;;;;5061268;28;20233;-78
2021/09/18 07:20:41;;;;;;;1.33;1.23;;;20.30;99.90;;;;;;5070336;28;20234;-79
2021/09/18 07:23:08;;;;;;;1.15;1.05;;;20.70;99.90;;;;;;5070072;28;20237;-76
2021/09/18 07:25:37;;;;;;;1.30;1.20;;;20.80;99.90;;;;;;5070144;28;20225;-78
2021/09/18 07:28:04;;;;;;;1.48;1.38;;;20.80;99.90;;;;;;5067386;28;20636;-77
2021/09/18 07:30:31;;;;;;;1.27;1.17;;;21.00;99.90;;;;;;5070518;28;20226;-77
2021/09/18 07:32:59;;;;;;;1.50;1.25;;;21.70;99.90;;;;;;5063173;28;20647;-77
2021/09/18 07:35:26;;;;;;;1.30;1.20;;;22.00;99.90;;;;;;5071179;28;20222;-78
2021/09/18 07:37:53;;;;;;;1.45;1.35;;;21.50;99.90;;;;;;5064626;28;20644;-78
2021/09/18 07:40:20;;;;;;;1.73;1.30;;;21.30;99.90;;;;;;5071094;28;20233;-77
2021/09/18 07:42:48;;;;;;;1.38;1.27;;;21.20;99.90;;;;;;5071270;28;20226;-77
2021/09/18 07:45:15;;;;;;;1.15;1.02;;;21.20;99.90;;;;;;5070077;28;20229;-78
2021/09/18 07:47:42;;;;;;;2.25;1.30;;;21.10;99.90;;;;;;5068936;28;20310;-78
2021/09/18 07:50:10;;;;;;;1.20;1.10;;;20.90;99.90;;;;;;5060148;28;20575;-77
2021/09/18 07:52:37;;;;;;;1.30;1.20;;;20.80;99.90;;;;;;5065926;28;20214;-79
2021/09/18 07:55:05;;;;;;;1.25;1.02;;;20.70;99.90;;;;;;5069327;28;20237;-79
2021/09/18 07:57:32;;;;;;;1.23;1.13;;;20.70;99.90;;;;;;5064073;28;20291;-78
2021/09/18 08:00:01;;;;;;;1.30;1.20;;;20.80;99.90;;;;;;5062683;28;20234;-77
2021/09/18 08:02:28;;;;;;;1.52;1.15;;;21.50;99.90;;;;;;5069944;28;20348;-77
2021/09/18 08:04:55;;;;;;;1.48;1.10;;;22.30;99.90;;;;;;5069961;28;20225;-78
2021/09/18 08:07:22;;;;;;;1.95;1.20;;;22.90;99.90;;;;;;5058228;28;20234;-79
2021/09/18 08:09:49;;;;;;;1.30;1.20;;;23.30;99.90;;;;;;5064108;28;20222;-79
2021/09/18 11:46:10;;;;;;;2.30;2.08;;;26.90;99.90;;;;;;4890084;28;20227;-77
2021/09/18 11:49:10;;;;;;;2.13;2.03;;;26.80;99.90;;;;;;4962748;28;20270;-76
2021/09/18 11:51:46;;;;;;;2.10;1.88;;;26.80;99.90;;;;;;5013600;28;20249;-76
2021/09/18 11:54:13;;;;;;;2.55;2.17;;;27.10;99.90;;;;;;5001376;28;20225;-77
2021/09/18 11:56:40;;;;;;;2.30;2.10;;;27.40;99.90;;;;;;5066561;28;20234;-78
2021/09/18 11:59:10;;;;;;;2.05;1.60;;;27.30;99.90;;;;;;5069832;28;20255;-77
2021/09/18 12:01:39;;;;;;;3.20;1.95;;;27.20;99.90;;;;;;5069049;28;20291;-76
2021/09/18 12:04:06;;;;;;;1.90;1.80;;;27.10;99.90;;;;;;5068953;28;20254;-78
2021/09/18 12:06:33;;;;;;;2.25;1.60;;;27.00;99.90;;;;;;5065478;28;20222;-77
2021/09/18 12:09:00;;;;;;;1.90;1.80;;;27.00;99.90;;;;;;5065126;28;20696;-77
2021/09/18 12:11:28;;;;;;;3.58;1.75;;;27.10;99.90;;;;;;5055094;28;20222;-77
2021/09/18 12:13:55;;;;;;;1.75;1.63;;;27.20;99.90;;;;;;5069188;28;20317;-77
2021/09/18 12:16:24;;;;;;;1.80;1.70;;;27.10;99.90;;;;;;5061938;28;20234;-77
2021/09/18 12:18:56;;;;;;;1.80;1.70;;;27.00;99.90;;;;;;5069386;28;20234;-77
2021/09/18 12:21:25;;;;;;;1.55;1.45;;;27.00;99.90;;;;;;5062333;28;20248;-77
2021/09/18 12:23:57;;;;;;;2.28;1.98;;;26.90;99.90;;;;;;5067464;28;20294;-77
2021/09/18 12:26:25;;;;;;;2.35;1.55;;;26.80;99.90;;;;;;5068707;28;20708;-77
2021/09/18 12:29:08;;;;;;;2.22;2.00;;;26.90;99.90;;;;;;5209780;22;20217;-80
2021/09/18 12:31:46;;;;;;;3.40;1.52;;;26.80;99.90;;;;;;5080912;28;20222;-78
2021/09/18 12:34:17;;;;;;;1.60;1.50;;;26.80;99.90;;;;;;5087860;28;20223;-78
2021/09/18 12:36:45;;;;;;;1.60;1.50;;;26.80;99.90;;;;;;5087341;28;20758;-78
2021/09/18 12:39:27;;;;;;;1.83;1.73;;;26.90;99.90;;;;;;4996723;28;20247;-78
2021/09/18 12:42:03;;;;;;;1.95;1.75;;;26.90;99.90;;;;;;5047013;28;20313;-78
2021/09/18 12:44:34;;;;;;;1.60;1.50;;;26.90;99.90;;;;;;5067324;28;20275;-78
2021/09/18 12:47:01;;;;;;;1.45;1.35;;;27.00;99.90;;;;;;5064310;28;20222;-78
2021/09/18 12:49:34;;;;;;;1.95;1.77;;;26.90;99.90;;;;;;5067317;28;20226;-78
2021/09/18 12:52:04;;;;;;;1.73;1.63;;;26.90;99.90;;;;;;5066055;28;20225;-78
2021/09/18 12:54:42;;;;;;;2.67;1.80;;;26.80;99.90;;;;;;5067467;28;20218;-78
2021/09/18 12:57:09;;;;;;;2.72;1.73;;;26.70;99.90;;;;;;5065210;28;20255;-78
2021/09/18 12:59:41;;;;;;;1.85;1.75;;;26.70;99.90;;;;;;5071428;28;20827;-78
2021/09/18 13:02:09;;;;;;;3.60;1.75;;;26.70;99.90;;;;;;5063300;28;20629;-78
2021/09/18 13:04:43;;;;;;;2.47;1.73;;;26.60;99.90;;;;;;5067995;28;20226;-78
2021/09/18 13:07:11;;;;;;;3.13;1.90;;;26.60;99.90;;;;;;5038581;28;20234;-78
2021/09/18 13:09:40;;;;;;;1.73;1.50;;;26.60;99.90;;;;;;5061885;28;20687;-78
2021/09/18 13:12:10;;;;;;;3.17;1.70;;;26.50;99.90;;;;;;5067171;28;20222;-78
2021/09/18 13:14:41;;;;;;;3.42;1.60;;;26.50;99.90;;;;;;5081137;28;20228;-79
2021/09/18 13:17:10;;;;;;;1.63;1.52;;;26.70;99.90;;;;;;5067134;28;20221;-78
2021/09/18 13:19:49;;;;;;;1.45;1.35;;;26.70;99.90;;;;;;5067308;28;20226;-78
2021/09/18 13:22:18;;;;;;;2.58;1.55;;;26.70;99.90;;;;;;5063491;28;20650;-77
2021/09/18 13:24:46;;;;;;;1.50;1.40;;;26.70;99.90;;;;;;5060889;28;20219;-78
2021/09/18 13:27:13;;;;;;;1.70;1.60;;;26.60;99.90;;;;;;5067452;28;20918;-78
2021/09/18 13:29:40;;;;;;;2.20;1.77;;;26.70;99.90;;;;;;5056055;28;20659;-77
2021/09/18 13:32:08;;;;;;;3.00;1.80;;;26.70;99.90;;;;;;5063559;28;20704;-78
2021/09/18 13:34:35;;;;;;;1.70;1.60;;;26.70;99.90;;;;;;5062819;28;20267;-78
2021/09/18 13:37:03;;;;;;;1.95;1.48;;;26.70;99.90;;;;;;5060905;28;20221;-78
2021/09/18 13:39:31;;;;;;;3.97;1.75;;;26.70;99.90;;;;;;5065471;28;20268;-78
2021/09/18 13:41:59;;;;;;;4.82;1.88;;;26.70;99.90;;;;;;5061271;28;20221;-78
2021/09/18 13:44:26;;;;;;;1.70;1.60;;;26.70;99.90;;;;;;5063820;28;20226;-78
2021/09/18 13:46:53;;;;;;;1.40;1.30;;;26.70;99.90;;;;;;5061461;28;20298;-76
2021/09/18 13:49:20;;;;;;;1.65;1.50;;;26.70;99.90;;;;;;5057497;28;20222;-77
2021/09/18 13:51:48;;;;;;;1.98;1.85;;;26.70;99.90;;;;;;5061017;28;20571;-78
2021/09/18 13:54:16;;;;;;;1.98;1.80;;;26.50;99.90;;;;;;5063906;28;20339;-79
2021/09/18 13:56:43;;;;;;;2.92;1.90;;;26.40;99.90;;;;;;5062927;28;20347;-78
2021/09/18 13:59:10;;;;;;;2.17;1.98;;;26.40;99.90;;;;;;5063724;28;20225;-78
2021/09/18 14:01:38;;;;;;;2.35;1.80;;;26.40;99.90;;;;;;5056712;28;20272;-79
2021/09/18 14:04:06;;;;;;;1.63;1.50;;;26.30;99.90;;;;;;5062181;28;20312;-79
2021/09/18 14:06:33;;;;;;;2.10;1.90;;;26.40;99.90;;;;;;5067256;28;20226;-78
2021/09/18 14:09:00;;;;;;;2.17;1.63;;;26.40;99.90;;;;;;5070288;28;20240;-78
2021/09/18 14:11:28;;;;;;;1.88;1.77;;;26.40;99.90;;;;;;5066287;28;20233;-78
2021/09/18 14:14:04;;;;;;;1.90;1.70;;;26.20;99.90;;;;;;5067102;28;20245;-78
2021/09/18 14:16:31;;;;;;;1.98;1.80;;;26.20;99.90;;;;;;4943944;28;20271;-77
2021/09/18 14:18:58;;;;;;;1.83;1.50;;;26.10;99.90;;;;;;5051980;28;20222;-79
2021/09/18 14:21:25;;;;;;;1.80;1.70;;;26.10;99.90;;;;;;5063313;28;20671;-78
2021/09/18 14:23:53;;;;;;;1.70;1.52;;;26.00;99.90;;;;;;5062991;28;20230;-76
2021/09/18 14:26:20;;;;;;;2.08;1.88;;;25.90;99.90;;;;;;5064923;28;20283;-78
2021/09/18 14:28:48;;;;;;;1.90;1.60;;;25.80;99.90;;;;;;5065044;28;20658;-77
2021/09/18 14:31:16;;;;;;;1.80;1.70;;;25.70;99.90;;;;;;5063685;28;20285;-78
2021/09/18 14:33:43;;;;;;;2.35;2.00;;;25.70;99.90;;;;;;5065993;28;20230;-77
2021/09/18 14:36:10;;;;;;;1.80;1.67;;;25.60;99.90;;;;;;5064400;28;20250;-78
2021/09/18 14:38:37;;;;;;;2.20;2.00;;;25.70;99.90;;;;;;5064466;28;20719;-77
2021/09/18 14:41:04;;;;;;;2.65;1.77;;;25.70;99.90;;;;;;5060993;28;20237;-78
2021/09/18 14:43:31;;;;;;;2.55;1.92;;;25.70;99.90;;;;;;5065537;28;20222;-78
2021/09/18 14:46:00;;;;;;;1.90;1.70;;;25.70;99.90;;;;;;5063724;28;20235;-78
2021/09/18 14:48:27;;;;;;;1.90;1.80;;;25.60;99.90;;;;;;5063493;28;20221;-78
2021/09/18 14:50:55;;;;;;;2.05;1.73;;;25.60;99.90;;;;;;5065011;28;20230;-78
2021/09/18 14:53:22;;;;;;;2.22;2.03;;;25.60;99.90;;;;;;5064645;28;20256;-77
2021/09/18 14:55:49;;;;;;;1.58;1.48;;;25.60;99.90;;;;;;5057404;28;20784;-77
2021/09/18 14:58:16;;;;;;;2.45;1.70;;;25.60;99.90;;;;;;5064516;28;20234;-76
2021/09/18 15:00:43;;;;;;;1.65;1.55;;;25.70;99.90;;;;;;5077193;28;20328;-76
2021/09/18 15:03:12;;;;;;;1.90;1.70;;;25.80;99.90;;;;;;5066106;28;20234;-77
2021/09/18 15:05:39;;;;;;;2.05;1.63;;;25.70;99.90;;;;;;5063813;28;20230;-78
2021/09/18 15:08:06;;;;;;;2.25;1.80;;;25.60;99.90;;;;;;5065952;28;20222;-76
2021/09/18 15:10:33;;;;;;;2.28;1.83;;;25.50;99.90;;;;;;5066467;28;20264;-76
2021/09/18 15:13:00;;;;;;;2.08;1.88;;;25.50;99.90;;;;;;5066905;28;20221;-77
2021/09/18 15:15:27;;;;;;;3.17;1.65;;;25.40;99.90;;;;;;5065734;28;20226;-78
2021/09/18 15:17:55;;;;;;;1.70;1.60;;;25.20;99.90;;;;;;5063385;28;20608;-76
2021/09/18 15:20:23;;;;;;;1.80;1.70;;;24.90;99.90;;;;;;5062718;28;20261;-78
2021/09/18 15:22:50;;;;;;;1.90;1.77;;;24.70;99.90;;;;;;5065562;28;20241;-78
2021/09/18 15:25:17;;;;;;;2.42;1.80;;;24.60;99.90;;;;;;5064369;28;20233;-76
2021/09/18 15:27:44;;;;;;;2.60;2.00;;;24.40;99.90;;;;;;5063093;28;20230;-77
2021/09/18 15:30:12;;;;;;;2.33;2.13;;;24.30;99.90;;;;;;5063473;28;20291;-78
2021/09/18 15:32:39;;;;;;;2.58;1.85;;;24.10;99.90;;;;;;5063142;28;20218;-76
2021/09/18 15:35:08;;;;;;;2.47;2.28;;;24.00;99.90;;;;;;5064815;28;20742;-76
2021/09/18 15:37:37;;;;;;;3.05;1.80;;;23.90;99.90;;;;;;5030573;28;20620;-77
2021/09/18 15:40:05;;;;;;;4.93;2.10;;;23.80;99.90;;;;;;5064866;28;20615;-77
2021/09/18 15:42:32;;;;;;;2.17;1.98;;;23.80;99.90;;;;;;5060439;28;20218;-77
2021/09/18 15:44:59;;;;;;;1.90;1.80;;;23.70;99.90;;;;;;5064996;28;20218;-76
2021/09/18 15:47:26;;;;;;;2.20;2.10;;;23.70;99.90;;;;;;5060527;28;20249;-78
2021/09/18 15:49:53;;;;;;;3.05;2.13;;;23.60;99.90;;;;;;5064484;28;20257;-77
2021/09/18 15:52:21;;;;;;;3.78;2.75;;;23.50;99.90;;;;;;5070073;28;20221;-78
2021/09/18 15:54:50;;;;;;;2.72;2.28;;;23.50;99.90;;;;;;5067670;28;20631;-77
2021/09/18 15:57:17;;;;;;;3.00;2.33;;;23.40;99.90;;;;;;5064386;28;20283;-77
2021/09/18 15:59:44;;;;;;;2.03;1.92;;;23.40;99.90;;;;;;5062757;28;20222;-77
2021/09/18 16:02:11;;;;;;;2.38;2.00;;;23.40;99.90;;;;;;5063526;28;20299;-76
2021/09/18 16:04:38;;;;;;;2.58;2.30;;;23.40;99.90;;;;;;5060836;28;20230;-79
2021/09/18 16:07:05;;;;;;;4.35;2.55;;;23.40;99.90;;;;;;5060777;28;20612;-77
2021/09/18 16:09:33;;;;;;;3.30;2.40;;;23.40;99.90;;;;;;5067477;28;20229;-78
2021/09/18 16:12:02;;;;;;;3.00;2.80;;;23.30;99.90;;;;;;5064693;28;20226;-78
2021/09/18 16:14:29;;;;;;;3.53;2.80;;;23.30;99.90;;;;;;5063391;28;20241;-78
2021/09/18 16:16:57;;;;;;;2.10;1.98;;;23.20;99.90;;;;;;5061237;28;20253;-78
2021/09/18 16:19:24;;;;;;;3.67;2.97;;;23.20;99.90;;;;;;5063600;28;20229;-79
2021/09/18 16:21:52;;;;;;;3.88;2.67;;;23.10;99.90;;;;;;5057973;28;20246;-78
2021/09/18 16:24:19;;;;;;;2.83;2.55;;;23.10;99.90;;;;;;5061891;28;20603;-78